Time;durP1;ratioP1;P1;durP2;ratioP2;P2;SDS_P1;SDS_P2;PMS_P1;PMS_P2;Temp;Humidity;BMP_temperature;BMP_pressure;BME280_temperature;BME280_humidity;BME280_pressure;Samples;Min_cycle;Max_cycle;Signal;HPM_P1;HPM_P2
2022/03/12 00:01:37;;;;;;;8.43;6.87;;;10.60;34.00;;;;;;4994433;28;20192;-76
2022/03/12 00:04:06;;;;;;;7.77;6.67;;;10.60;34.30;;;;;;4992727;28;20623;-77
2022/03/12 00:06:34;;;;;;;10.23;7.27;;;10.70;34.20;;;;;;4994730;28;20200;-77
2022/03/12 00:09:02;;;;;;;8.63;6.80;;;10.60;34.50;;;;;;4996472;28;20684;-77
2022/03/12 00:11:34;;;;;;;9.20;6.40;;;10.60;34.40;;;;;;4997727;28;20673;-77
2022/03/12 00:14:03;;;;;;;9.63;7.50;;;10.70;34.20;;;;;;4995797;28;20202;-77
2022/03/12 00:16:31;;;;;;;8.27;7.10;;;10.60;34.30;;;;;;4995051;28;20207;-77
2022/03/12 00:19:02;;;;;;;11.73;7.37;;;10.60;34.60;;;;;;5010963;28;20214;-77
2022/03/12 00:21:35;;;;;;;11.70;7.53;;;10.60;34.40;;;;;;4996077;28;20203;-77
2022/03/12 00:24:05;;;;;;;9.57;6.63;;;10.60;34.50;;;;;;5016073;28;20200;-77
2022/03/12 00:26:33;;;;;;;8.47;6.47;;;10.50;34.70;;;;;;4996676;28;20215;-77
2022/03/12 00:29:00;;;;;;;10.03;6.47;;;10.50;34.80;;;;;;5004890;28;20203;-77
2022/03/12 00:31:28;;;;;;;8.83;6.73;;;10.60;34.90;;;;;;5019595;28;20596;-77
2022/03/12 00:33:56;;;;;;;7.43;6.60;;;10.60;34.60;;;;;;4995964;28;20203;-77
2022/03/12 00:36:25;;;;;;;8.10;6.63;;;10.60;34.50;;;;;;5015516;28;20185;-77
2022/03/12 00:38:52;;;;;;;10.40;6.63;;;10.60;34.40;;;;;;5017783;28;20206;-77
2022/03/12 00:41:19;;;;;;;10.60;6.23;;;10.70;34.20;;;;;;5000328;28;20232;-77
2022/03/12 00:43:47;;;;;;;12.13;7.03;;;10.70;34.40;;;;;;5009318;28;20214;-77
2022/03/12 00:46:15;;;;;;;8.47;7.40;;;10.60;34.40;;;;;;5007817;28;20227;-77
2022/03/12 00:48:42;;;;;;;8.43;6.47;;;10.50;34.80;;;;;;4996284;28;20207;-76
2022/03/12 00:51:11;;;;;;;9.63;6.63;;;10.50;34.80;;;;;;5013818;28;20215;-77
2022/03/12 00:53:42;;;;;;;10.23;7.00;;;10.50;35.00;;;;;;4998656;28;20199;-77
2022/03/12 00:56:10;;;;;;;8.47;6.80;;;10.50;34.80;;;;;;5007249;28;20191;-77
2022/03/12 00:58:38;;;;;;;9.43;7.03;;;10.50;35.30;;;;;;5004821;28;20207;-77
2022/03/12 01:01:07;;;;;;;8.70;6.77;;;10.60;35.00;;;;;;5006527;28;20285;-77
2022/03/12 01:03:34;;;;;;;9.73;7.10;;;10.50;34.90;;;;;;4995291;28;20211;-77
2022/03/12 01:06:04;;;;;;;8.37;6.97;;;10.50;34.80;;;;;;4992949;28;20586;-77
2022/03/12 01:08:33;;;;;;;7.60;6.53;;;10.40;34.90;;;;;;5001355;28;20187;-77
2022/03/12 01:11:04;;;;;;;7.77;6.67;;;10.50;35.00;;;;;;4995378;28;20697;-77
2022/03/12 01:13:32;;;;;;;9.43;6.93;;;10.50;35.20;;;;;;4990464;28;20573;-77
2022/03/12 01:16:00;;;;;;;8.37;6.53;;;10.50;35.20;;;;;;4996353;28;20275;-77
2022/03/12 01:18:28;;;;;;;7.90;6.40;;;10.40;35.40;;;;;;4996177;28;20199;-77
2022/03/12 01:20:55;;;;;;;9.93;6.80;;;10.50;35.60;;;;;;5012124;28;20225;-76
2022/03/12 01:23:25;;;;;;;7.63;6.73;;;10.50;35.60;;;;;;5014875;28;20207;-77
2022/03/12 01:25:54;;;;;;;11.20;7.00;;;10.50;35.50;;;;;;5014946;28;20210;-77
2022/03/12 01:28:23;;;;;;;8.63;6.93;;;10.40;35.50;;;;;;5011862;28;20661;-77
2022/03/12 01:30:50;;;;;;;8.97;7.50;;;10.40;35.60;;;;;;5026964;28;20238;-77
2022/03/12 01:33:19;;;;;;;9.47;7.50;;;10.40;35.60;;;;;;5031606;28;20202;-77
2022/03/12 01:35:46;;;;;;;9.30;7.30;;;10.40;35.80;;;;;;5013284;28;20407;-77
2022/03/12 01:38:14;;;;;;;9.60;7.30;;;10.40;35.90;;;;;;5032284;28;20190;-77
2022/03/12 01:40:42;;;;;;;8.97;7.33;;;10.30;35.80;;;;;;5013886;28;20230;-77
2022/03/12 01:43:09;;;;;;;11.17;7.17;;;10.30;36.10;;;;;;5013506;28;20657;-77
2022/03/12 01:45:38;;;;;;;8.93;7.03;;;10.30;36.60;;;;;;5011742;28;20223;-77
2022/03/12 01:48:07;;;;;;;8.87;7.23;;;10.30;36.30;;;;;;5006617;28;20199;-77
2022/03/12 01:50:45;;;;;;;8.90;7.10;;;10.30;36.10;;;;;;5013976;28;20218;-77
2022/03/12 01:53:13;;;;;;;8.40;7.60;;;10.30;36.20;;;;;;5012563;28;20198;-77
2022/03/12 01:55:41;;;;;;;9.13;7.30;;;10.30;36.10;;;;;;5032800;28;20195;-77
2022/03/12 01:58:09;;;;;;;8.37;6.97;;;10.30;36.00;;;;;;5015026;28;20199;-77
2022/03/12 02:00:43;;;;;;;8.43;6.67;;;10.30;36.00;;;;;;5014548;28;20211;-77
2022/03/12 02:03:11;;;;;;;9.60;6.87;;;10.30;36.40;;;;;;5013318;28;20198;-77
2022/03/12 02:05:38;;;;;;;11.60;7.33;;;10.20;36.40;;;;;;5011280;28;20684;-76
2022/03/12 02:08:32;;;;;;;11.73;7.20;;;10.20;36.30;;;;;;5021225;28;20214;-77
2022/03/12 02:10:59;;;;;;;9.50;7.50;;;10.20;36.40;;;;;;5030277;28;20230;-77
2022/03/12 02:13:29;;;;;;;9.47;7.27;;;10.10;36.50;;;;;;5014461;28;20202;-77
2022/03/12 02:16:06;;;;;;;9.77;7.63;;;10.10;36.70;;;;;;5013123;28;20199;-77
2022/03/12 02:18:35;;;;;;;10.47;8.07;;;10.10;36.70;;;;;;5014300;28;20190;-77
2022/03/12 02:21:02;;;;;;;8.30;6.67;;;10.10;36.70;;;;;;5007595;28;20235;-77
2022/03/12 02:23:30;;;;;;;9.27;6.93;;;10.10;37.00;;;;;;5024362;28;20198;-77
2022/03/12 02:26:03;;;;;;;11.43;7.37;;;10.00;36.90;;;;;;5012830;28;20747;-77
2022/03/12 02:28:30;;;;;;;8.57;6.90;;;10.00;37.10;;;;;;5011751;28;20199;-77
2022/03/12 02:30:59;;;;;;;9.20;7.07;;;10.10;37.00;;;;;;5012352;28;20215;-77
2022/03/12 02:33:28;;;;;;;9.57;7.50;;;10.00;37.00;;;;;;5014271;28;20207;-77
2022/03/12 02:35:57;;;;;;;9.40;6.97;;;10.00;37.10;;;;;;5030748;28;20206;-76
2022/03/12 02:38:28;;;;;;;9.97;7.40;;;9.90;38.30;;;;;;5029745;28;20202;-77
2022/03/12 02:41:10;;;;;;;9.63;6.83;;;10.00;37.50;;;;;;5008001;28;20223;-77
2022/03/12 02:43:43;;;;;;;12.70;6.73;;;10.00;37.30;;;;;;5010932;28;20206;-76
2022/03/12 02:46:11;;;;;;;9.13;7.33;;;10.00;37.60;;;;;;5011897;28;20211;-76
2022/03/12 02:48:39;;;;;;;7.70;6.87;;;10.00;37.60;;;;;;5011690;28;20214;-77
2022/03/12 02:51:07;;;;;;;8.70;7.17;;;9.90;38.90;;;;;;5013168;28;20572;-77
2022/03/12 02:53:35;;;;;;;12.77;6.77;;;10.00;37.70;;;;;;5029386;28;20199;-76
2022/03/12 02:56:04;;;;;;;9.03;7.73;;;9.90;38.70;;;;;;5027632;28;20226;-77
2022/03/12 02:58:31;;;;;;;10.33;7.47;;;9.90;38.80;;;;;;5027300;28;20199;-77
2022/03/12 03:00:58;;;;;;;9.93;7.53;;;9.90;38.70;;;;;;5017301;28;20285;-77
2022/03/12 03:03:26;;;;;;;8.27;7.10;;;9.90;38.90;;;;;;5018406;28;20199;-76
2022/03/12 03:05:54;;;;;;;8.83;6.80;;;10.00;37.90;;;;;;5011344;28;20416;-77
2022/03/12 03:08:23;;;;;;;9.90;7.00;;;9.90;38.80;;;;;;5013691;28;20198;-74
2022/03/12 03:10:52;;;;;;;9.67;8.30;;;9.90;39.00;;;;;;5012145;28;20233;-75
2022/03/12 03:13:36;;;;;;;9.80;6.87;;;9.90;39.10;;;;;;5007478;28;20211;-75
2022/03/12 03:16:08;;;;;;;10.50;7.23;;;9.90;39.40;;;;;;5010485;28;20206;-76
2022/03/12 03:18:39;;;;;;;8.97;6.77;;;9.90;39.50;;;;;;5013354;28;20207;-77
2022/03/12 03:21:09;;;;;;;8.90;7.33;;;9.80;39.80;;;;;;5033122;28;20249;-77
2022/03/12 03:23:37;;;;;;;9.37;7.27;;;9.90;39.90;;;;;;5035428;28;20588;-77
2022/03/12 03:26:06;;;;;;;8.43;7.23;;;9.80;39.80;;;;;;5013476;28;20577;-76
2022/03/12 03:28:35;;;;;;;8.60;6.70;;;9.90;39.90;;;;;;5021017;28;20199;-77
2022/03/12 03:31:05;;;;;;;9.07;7.80;;;9.90;40.20;;;;;;5017531;28;20572;-76
2022/03/12 03:33:33;;;;;;;9.40;7.83;;;9.90;39.70;;;;;;5017055;28;20210;-77
2022/03/12 03:36:01;;;;;;;9.50;6.93;;;9.80;40.20;;;;;;5018748;28;20203;-77
2022/03/12 03:39:09;;;;;;;9.23;7.63;;;9.80;40.10;;;;;;5034935;28;20206;-77
2022/03/12 03:41:37;;;;;;;9.63;7.73;;;9.80;40.50;;;;;;5015696;28;20217;-77
2022/03/12 03:44:07;;;;;;;10.73;7.93;;;9.70;40.70;;;;;;5024976;28;20199;-76
2022/03/12 03:46:35;;;;;;;8.97;7.23;;;9.80;40.70;;;;;;5017720;28;20226;-77
2022/03/12 03:49:04;;;;;;;8.47;7.37;;;9.80;40.90;;;;;;5016159;28;20673;-76
2022/03/12 03:51:33;;;;;;;8.40;7.50;;;9.80;41.10;;;;;;5034406;28;20215;-77
2022/03/12 03:54:00;;;;;;;10.17;8.13;;;9.80;41.20;;;;;;5014651;28;20810;-77
2022/03/12 03:56:30;;;;;;;12.23;8.33;;;9.70;41.40;;;;;;5033831;28;20190;-77
2022/03/12 03:58:57;;;;;;;10.97;7.50;;;9.80;41.60;;;;;;5032174;28;20544;-77
2022/03/12 04:01:26;;;;;;;9.13;7.53;;;9.80;41.60;;;;;;5014656;28;20214;-76
2022/03/12 04:03:53;;;;;;;10.13;7.00;;;9.80;42.00;;;;;;5008386;28;20210;-76
2022/03/12 04:06:23;;;;;;;10.10;6.83;;;9.70;42.00;;;;;;5031821;28;20222;-76
2022/03/12 04:08:51;;;;;;;11.77;7.30;;;9.80;42.30;;;;;;5018685;28;20199;-76
2022/03/12 04:11:20;;;;;;;10.50;7.50;;;9.70;42.20;;;;;;5019298;28;20219;-76
2022/03/12 04:13:49;;;;;;;10.13;7.30;;;9.70;42.50;;;;;;5012657;28;20214;-76
2022/03/12 04:16:18;;;;;;;10.40;8.10;;;9.70;42.50;;;;;;5008810;28;20198;-76
2022/03/12 04:18:48;;;;;;;12.13;8.77;;;9.70;42.70;;;;;;5028990;28;20245;-76
2022/03/12 04:21:16;;;;;;;13.70;8.03;;;9.70;43.40;;;;;;5017814;28;20242;-76
2022/03/12 04:23:44;;;;;;;11.30;8.03;;;9.70;42.80;;;;;;5011974;28;20677;-76
2022/03/12 04:26:13;;;;;;;9.93;7.73;;;9.70;42.90;;;;;;5013313;28;20677;-77
2022/03/12 04:28:42;;;;;;;10.30;7.87;;;9.60;42.90;;;;;;5011019;28;20195;-76
2022/03/12 04:31:13;;;;;;;10.23;7.60;;;9.60;43.10;;;;;;5024995;28;20234;-76
2022/03/12 04:33:40;;;;;;;9.23;8.20;;;9.60;43.30;;;;;;5031477;28;20191;-76
2022/03/12 04:36:11;;;;;;;10.77;8.03;;;9.60;43.40;;;;;;5014955;28;20203;-76
2022/03/12 04:38:39;;;;;;;12.90;7.83;;;9.60;43.50;;;;;;5019601;28;20206;-76
2022/03/12 04:41:08;;;;;;;9.47;7.97;;;9.60;43.80;;;;;;5014897;28;20230;-77
2022/03/12 04:43:35;;;;;;;12.97;8.03;;;9.70;44.00;;;;;;5013735;28;20207;-76
2022/03/12 04:46:03;;;;;;;11.17;8.13;;;9.60;44.30;;;;;;5012861;28;20203;-77
2022/03/12 04:48:30;;;;;;;9.80;7.40;;;9.60;44.50;;;;;;5031253;28;20230;-76
2022/03/12 04:50:58;;;;;;;10.73;8.07;;;9.60;44.60;;;;;;5010967;28;20237;-76
2022/03/12 04:53:27;;;;;;;9.73;7.10;;;9.60;45.00;;;;;;5008486;28;20202;-77
2022/03/12 04:55:55;;;;;;;9.10;7.80;;;9.60;45.20;;;;;;5012775;28;20223;-76
2022/03/12 04:58:23;;;;;;;10.03;7.90;;;9.60;45.20;;;;;;5010158;28;20202;-76
2022/03/12 05:00:50;;;;;;;10.10;7.50;;;9.60;45.50;;;;;;5010858;28;20697;-76
2022/03/12 05:03:19;;;;;;;13.00;8.40;;;9.60;45.50;;;;;;5031445;28;20203;-77
2022/03/12 05:05:48;;;;;;;9.30;7.07;;;9.60;45.90;;;;;;5014957;28;20210;-76
2022/03/12 05:08:17;;;;;;;10.90;7.97;;;9.60;46.20;;;;;;5013398;28;20588;-76
2022/03/12 05:10:49;;;;;;;8.60;7.10;;;9.60;46.20;;;;;;5012765;28;20615;-76
2022/03/12 05:13:22;;;;;;;11.53;7.53;;;9.60;46.30;;;;;;5011831;28;20211;-76
2022/03/12 05:15:52;;;;;;;8.57;7.40;;;9.60;46.50;;;;;;5029051;28;20211;-76
2022/03/12 05:18:21;;;;;;;10.53;7.47;;;9.60;46.70;;;;;;5015488;28;20191;-76
2022/03/12 05:20:49;;;;;;;9.37;7.33;;;9.60;46.90;;;;;;5029398;23;20651;-76
2022/03/12 05:23:17;;;;;;;10.40;7.97;;;9.50;47.00;;;;;;5007206;28;20832;-76
2022/03/12 05:25:49;;;;;;;13.23;8.00;;;9.60;47.20;;;;;;5014034;28;20204;-76
2022/03/12 05:28:20;;;;;;;10.00;7.30;;;9.60;47.30;;;;;;5006156;28;20223;-76
2022/03/12 05:30:48;;;;;;;10.40;7.60;;;9.50;47.50;;;;;;4993886;28;20584;-76
2022/03/12 05:33:17;;;;;;;8.50;7.40;;;9.50;47.50;;;;;;4973676;28;20197;-76
2022/03/12 05:35:45;;;;;;;11.77;8.13;;;9.50;47.60;;;;;;4974317;28;20193;-76
2022/03/12 05:38:13;;;;;;;10.00;7.10;;;9.50;47.60;;;;;;4971872;28;20216;-76
2022/03/12 05:40:41;;;;;;;9.80;7.60;;;9.50;47.90;;;;;;4972817;28;20243;-76
2022/03/12 05:43:12;;;;;;;9.87;7.53;;;9.50;48.10;;;;;;4996077;28;20215;-77
2022/03/12 05:45:40;;;;;;;11.87;7.83;;;9.60;48.30;;;;;;4971413;28;20643;-76
2022/03/12 05:48:09;;;;;;;10.37;6.80;;;9.50;48.40;;;;;;4987508;28;20224;-77
2022/03/12 05:50:36;;;;;;;12.63;8.10;;;9.50;48.90;;;;;;4995396;28;20212;-77
2022/03/12 05:53:08;;;;;;;10.13;7.53;;;9.50;49.20;;;;;;4989135;28;20197;-76
2022/03/12 05:55:39;;;;;;;10.83;7.73;;;9.60;49.20;;;;;;4977801;28;20203;-77
2022/03/12 05:58:08;;;;;;;10.33;7.63;;;9.60;49.40;;;;;;4988123;28;20192;-76
2022/03/12 06:00:36;;;;;;;10.30;8.00;;;9.50;49.90;;;;;;4974483;28;20205;-76
2022/03/12 06:03:10;;;;;;;9.27;7.50;;;9.50;50.10;;;;;;4972085;28;20192;-78
2022/03/12 06:05:43;;;;;;;9.53;8.00;;;9.50;50.30;;;;;;4983472;28;20188;-75
2022/03/12 06:08:20;;;;;;;11.93;6.93;;;9.50;50.80;;;;;;4992269;28;20209;-75
2022/03/12 06:10:52;;;;;;;11.57;7.60;;;10.90;51.30;;;;;;4981237;28;20247;-75
2022/03/12 06:13:37;;;;;;;9.93;8.50;;;10.80;49.40;;;;;;4994409;28;20201;-77
2022/03/12 06:16:08;;;;;;;10.77;7.90;;;10.50;48.60;;;;;;4982401;28;20216;-78
2022/03/12 06:18:38;;;;;;;9.53;8.00;;;9.70;50.40;;;;;;4974644;28;20189;-78
2022/03/12 06:21:07;;;;;;;10.97;8.13;;;9.50;51.60;;;;;;4978065;28;20722;-78
2022/03/12 06:23:44;;;;;;;13.53;8.60;;;9.40;52.10;;;;;;4987725;28;20566;-77
2022/03/12 06:26:35;;;;;;;11.47;7.63;;;9.40;52.80;;;;;;4990989;28;20681;-78
2022/03/12 06:29:16;;;;;;;8.73;7.50;;;9.40;53.20;;;;;;4976305;28;20209;-78
2022/03/12 06:31:45;;;;;;;9.10;7.67;;;9.40;53.50;;;;;;4977433;28;20239;-78
2022/03/12 06:34:12;;;;;;;10.20;7.97;;;9.30;54.00;;;;;;4977411;28;20216;-78
2022/03/12 06:36:42;;;;;;;11.80;8.10;;;9.30;54.50;;;;;;4973390;28;20212;-77
2022/03/12 06:39:13;;;;;;;10.83;8.27;;;9.40;54.80;;;;;;4996052;28;20197;-78
2022/03/12 06:41:45;;;;;;;10.37;7.90;;;9.40;55.20;;;;;;4980244;28;20217;-79
2022/03/12 06:44:15;;;;;;;10.73;7.87;;;9.40;55.40;;;;;;4981679;28;20193;-77
2022/03/12 06:46:55;;;;;;;10.97;7.77;;;9.40;55.60;;;;;;4985095;28;20200;-78
2022/03/12 06:49:29;;;;;;;11.93;7.93;;;9.40;56.00;;;;;;4996005;28;20228;-78
2022/03/12 06:51:57;;;;;;;9.83;7.63;;;9.40;56.10;;;;;;4973301;28;20584;-78
2022/03/12 06:54:26;;;;;;;10.60;7.33;;;9.40;56.60;;;;;;4982805;28;20189;-78
2022/03/12 06:56:54;;;;;;;11.87;7.43;;;9.40;56.90;;;;;;4978759;28;20201;-77
2022/03/12 06:59:23;;;;;;;11.37;7.97;;;9.50;57.20;;;;;;4989787;28;20630;-79
2022/03/12 07:01:50;;;;;;;9.37;7.07;;;9.50;57.60;;;;;;4977256;28;20224;-78
2022/03/12 07:04:21;;;;;;;10.97;7.70;;;9.60;57.80;;;;;;4978763;28;20197;-79
2022/03/12 07:06:57;;;;;;;10.77;7.93;;;9.60;58.30;;;;;;4975128;28;20201;-78
2022/03/12 07:09:24;;;;;;;8.73;7.20;;;9.60;58.50;;;;;;4971491;28;20224;-78
2022/03/12 07:11:58;;;;;;;10.53;7.53;;;9.60;59.10;;;;;;4979881;28;20228;-79
2022/03/12 07:14:27;;;;;;;11.53;7.27;;;9.80;59.20;;;;;;4990595;28;20203;-78
2022/03/12 07:16:55;;;;;;;10.00;7.70;;;9.80;59.50;;;;;;4977842;28;20201;-85
2022/03/12 07:19:24;;;;;;;11.03;7.97;;;9.90;59.70;;;;;;4977600;28;20193;-82
2022/03/12 07:21:51;;;;;;;9.07;7.20;;;9.90;60.20;;;;;;4977149;28;20225;-80
2022/03/12 07:24:19;;;;;;;9.57;7.57;;;9.90;60.00;;;;;;4992434;28;20205;-79
2022/03/12 07:26:55;;;;;;;9.97;6.83;;;10.00;59.40;;;;;;4973896;28;20203;-78
2022/03/12 07:29:26;;;;;;;8.57;7.63;;;9.90;60.60;;;;;;4976468;28;20216;-79
2022/03/12 07:31:56;;;;;;;11.40;7.40;;;9.90;61.30;;;;;;4970350;28;20693;-77
2022/03/12 07:34:25;;;;;;;9.33;7.40;;;9.90;61.50;;;;;;4977180;28;20214;-78
2022/03/12 07:36:52;;;;;;;9.60;7.90;;;10.00;60.50;;;;;;4973387;28;20204;-77
2022/03/12 07:39:21;;;;;;;10.27;7.43;;;10.00;61.00;;;;;;4971359;28;20298;-77
2022/03/12 07:41:53;;;;;;;11.67;7.40;;;10.00;61.20;;;;;;4973478;28;20229;-77
2022/03/12 07:44:22;;;;;;;11.63;7.53;;;10.00;61.50;;;;;;4986520;28;20213;-81
2022/03/12 07:46:51;;;;;;;8.13;7.03;;;10.00;62.00;;;;;;4972396;28;20210;-81
2022/03/12 07:49:19;;;;;;;8.53;6.90;;;10.10;62.40;;;;;;4977755;28;20701;-80
2022/03/12 07:51:47;;;;;;;9.60;6.87;;;10.10;63.10;;;;;;4982105;28;20766;-81
2022/03/12 07:54:16;;;;;;;11.37;7.43;;;10.10;63.80;;;;;;4971994;28;20208;-81
2022/03/12 07:56:44;;;;;;;10.73;7.93;;;10.10;64.20;;;;;;4972095;28;20208;-80
2022/03/12 07:59:12;;;;;;;10.00;7.67;;;10.10;64.80;;;;;;4980622;28;20188;-80
2022/03/12 08:01:39;;;;;;;10.77;7.93;;;10.20;65.20;;;;;;4995396;28;20229;-79
2022/03/12 08:04:07;;;;;;;9.83;7.03;;;10.30;65.70;;;;;;4967685;28;20193;-80
2022/03/12 08:06:35;;;;;;;11.23;7.57;;;10.40;65.50;;;;;;4995813;28;20216;-80
2022/03/12 08:09:04;;;;;;;9.30;7.50;;;10.40;66.90;;;;;;4979445;28;20212;-83
2022/03/12 08:11:35;;;;;;;9.53;7.30;;;10.40;66.80;;;;;;4995171;28;20232;-82
2022/03/12 08:14:06;;;;;;;10.90;7.50;;;10.30;67.70;;;;;;4999171;28;20203;-80
2022/03/12 08:16:37;;;;;;;8.50;6.73;;;10.40;68.40;;;;;;4981859;28;20682;-80
2022/03/12 08:19:06;;;;;;;8.53;7.13;;;10.40;69.10;;;;;;4990587;28;20208;-80
2022/03/12 08:21:35;;;;;;;10.70;7.10;;;10.50;69.40;;;;;;4978107;28;20239;-81
2022/03/12 08:24:04;;;;;;;8.67;7.20;;;10.60;70.80;;;;;;4995953;28;20196;-80
2022/03/12 08:26:34;;;;;;;8.90;7.30;;;10.60;71.50;;;;;;4983011;28;20203;-80
2022/03/12 08:29:02;;;;;;;8.60;7.10;;;10.60;72.00;;;;;;4980345;28;20224;-82
2022/03/12 08:31:30;;;;;;;8.80;7.23;;;10.70;74.80;;;;;;4990156;28;20228;-80
2022/03/12 08:33:58;;;;;;;9.17;7.67;;;10.80;72.10;;;;;;4979151;28;20212;-81
2022/03/12 08:36:26;;;;;;;7.63;6.83;;;10.90;73.90;;;;;;4984583;28;20212;-79
2022/03/12 08:38:54;;;;;;;9.70;6.93;;;10.80;73.60;;;;;;4994431;28;20197;-80
2022/03/12 08:41:22;;;;;;;8.97;7.13;;;10.80;74.30;;;;;;4983191;28;20221;-80
2022/03/12 08:43:51;;;;;;;10.13;7.53;;;10.90;74.50;;;;;;4979238;28;20199;-79
2022/03/12 08:46:19;;;;;;;11.33;8.43;;;11.00;75.30;;;;;;4992009;28;20216;-81
2022/03/12 08:48:47;;;;;;;10.33;7.07;;;11.00;75.80;;;;;;4991816;28;20217;-80
2022/03/12 08:51:14;;;;;;;8.17;6.70;;;10.90;77.70;;;;;;4980263;28;20212;-81
2022/03/12 08:53:42;;;;;;;8.03;7.13;;;11.00;78.80;;;;;;4992707;28;20663;-79
2022/03/12 08:56:09;;;;;;;9.33;7.27;;;11.10;79.50;;;;;;4995431;28;20201;-79
2022/03/12 08:59:02;;;;;;;8.27;6.80;;;11.20;78.50;;;;;;4978366;28;20704;-81
2022/03/12 09:01:32;;;;;;;9.83;7.67;;;11.30;78.00;;;;;;4982441;28;20235;-81
2022/03/12 09:04:01;;;;;;;9.10;7.23;;;11.40;77.90;;;;;;4982130;28;20702;-80
2022/03/12 09:06:31;;;;;;;7.93;6.93;;;11.50;77.20;;;;;;4977222;28;20197;-81
2022/03/12 09:08:59;;;;;;;8.27;7.40;;;11.30;77.50;;;;;;4976155;28;20216;-80
2022/03/12 09:11:26;;;;;;;10.43;7.50;;;11.30;77.40;;;;;;4975080;28;20241;-81
2022/03/12 09:13:54;;;;;;;10.27;7.87;;;11.30;77.70;;;;;;4976735;28;20216;-81
2022/03/12 09:16:23;;;;;;;9.90;7.60;;;11.40;78.10;;;;;;4992728;28;20205;-81
2022/03/12 09:18:51;;;;;;;12.90;7.07;;;11.60;78.30;;;;;;4977138;28;20295;-80
2022/03/12 09:21:19;;;;;;;9.35;7.05;;;11.70;78.60;;;;;;4973472;28;20237;-81
2022/03/12 09:23:47;;;;;;;9.37;6.90;;;11.60;76.70;;;;;;4970920;28;20197;-81
2022/03/12 09:26:15;;;;;;;10.13;7.88;;;11.60;77.40;;;;;;4976136;28;20197;-80
2022/03/12 09:28:42;;;;;;;8.07;7.23;;;11.80;79.00;;;;;;4975857;28;20206;-80
2022/03/12 09:31:10;;;;;;;10.48;7.45;;;11.80;77.70;;;;;;4976201;28;20225;-81
2022/03/12 09:33:39;;;;;;;10.00;7.45;;;11.90;77.60;;;;;;4975698;28;20228;-82
2022/03/12 09:36:09;;;;;;;9.23;7.90;;;11.90;77.30;;;;;;4978846;28;20217;-81
2022/03/12 09:38:36;;;;;;;8.95;7.80;;;11.90;78.20;;;;;;4976864;28;20201;-81
2022/03/12 09:41:04;;;;;;;8.60;7.67;;;11.80;78.50;;;;;;4975058;28;20229;-81
2022/03/12 09:43:31;;;;;;;9.05;7.47;;;11.90;79.20;;;;;;4976101;28;20212;-81
2022/03/12 09:45:59;;;;;;;9.02;7.45;;;11.90;79.10;;;;;;4975656;28;20204;-81
2022/03/12 09:48:27;;;;;;;11.38;8.13;;;12.00;79.20;;;;;;4976872;28;20204;-81
2022/03/12 09:50:56;;;;;;;9.30;6.88;;;12.20;79.10;;;;;;4974968;28;20734;-81
2022/03/12 09:53:24;;;;;;;9.32;8.10;;;12.30;79.10;;;;;;4980832;28;20205;-81
2022/03/12 09:55:51;;;;;;;9.70;7.68;;;12.50;79.60;;;;;;4974842;28;20209;-82
2022/03/12 09:58:20;;;;;;;9.50;7.22;;;12.60;78.70;;;;;;4974426;28;20201;-81
2022/03/12 10:00:47;;;;;;;8.60;7.38;;;12.50;76.90;;;;;;4980707;28;20208;-80
2022/03/12 10:03:16;;;;;;;10.60;7.80;;;12.60;78.30;;;;;;4979540;28;20208;-81
2022/03/12 10:05:55;;;;;;;8.27;7.38;;;12.40;77.20;;;;;;4989281;28;20202;-77
2022/03/12 10:08:33;;;;;;;8.63;7.72;;;12.40;77.90;;;;;;4978371;28;20204;-80
2022/03/12 10:11:02;;;;;;;9.75;7.95;;;12.50;77.90;;;;;;4972447;28;20706;-81
2022/03/12 10:13:30;;;;;;;10.02;7.53;;;12.50;77.00;;;;;;4997998;28;20216;-81
2022/03/12 10:15:58;;;;;;;9.65;7.50;;;12.50;76.60;;;;;;4995150;28;20205;-82
2022/03/12 10:18:26;;;;;;;9.07;7.70;;;12.80;77.20;;;;;;4994660;28;20197;-81
2022/03/12 10:20:54;;;;;;;10.85;8.00;;;12.70;75.30;;;;;;4981935;28;20228;-80
2022/03/12 10:23:23;;;;;;;8.77;7.68;;;12.90;75.90;;;;;;4988157;28;20208;-82
2022/03/12 10:25:50;;;;;;;9.13;7.75;;;12.90;75.80;;;;;;4998597;28;20202;-81
2022/03/12 10:28:18;;;;;;;9.95;7.80;;;13.00;75.40;;;;;;5003664;28;20683;-82
2022/03/12 10:30:45;;;;;;;9.90;7.88;;;12.90;75.30;;;;;;4976303;28;20233;-82
2022/03/12 10:33:22;;;;;;;12.00;8.23;;;12.90;75.30;;;;;;4995214;28;20204;-81
2022/03/12 10:35:49;;;;;;;9.43;7.63;;;13.00;77.50;;;;;;4995009;28;20208;-81
2022/03/12 10:38:17;;;;;;;8.40;7.00;;;13.20;77.50;;;;;;4975001;28;20205;-81
2022/03/12 10:40:46;;;;;;;8.00;6.88;;;13.30;78.90;;;;;;4994608;28;20228;-81
2022/03/12 10:43:15;;;;;;;7.55;6.70;;;13.20;79.10;;;;;;4973794;28;20207;-80
2022/03/12 10:45:46;;;;;;;8.55;6.28;;;13.40;79.60;;;;;;4971239;28;20197;-81
2022/03/12 10:48:18;;;;;;;7.82;7.03;;;13.50;79.40;;;;;;4988742;28;20198;-80
2022/03/12 10:50:48;;;;;;;7.80;6.53;;;13.60;77.70;;;;;;4977841;28;20220;-82
2022/03/12 10:53:17;;;;;;;7.53;5.95;;;13.50;78.10;;;;;;4971573;28;20277;-79
2022/03/12 10:55:48;;;;;;;8.38;6.22;;;13.50;78.60;;;;;;4973658;28;20231;-79
2022/03/12 10:58:17;;;;;;;9.27;6.55;;;13.50;78.90;;;;;;4987384;28;20208;-78
2022/03/12 11:00:47;;;;;;;7.95;5.88;;;13.60;79.80;;;;;;4987393;28;20227;-78
2022/03/12 11:03:18;;;;;;;6.45;5.05;;;13.70;78.50;;;;;;4973800;28;20565;-78
2022/03/12 11:05:53;;;;;;;7.15;6.07;;;13.90;78.50;;;;;;4972491;28;20197;-77
2022/03/12 11:08:23;;;;;;;8.60;5.40;;;14.10;77.50;;;;;;4987672;28;20196;-78
2022/03/12 11:10:54;;;;;;;6.45;5.78;;;14.20;76.40;;;;;;4972329;28;20224;-78
2022/03/12 11:13:31;;;;;;;7.25;5.63;;;14.20;75.70;;;;;;4968730;28;20551;-77
2022/03/12 11:16:24;;;;;;;7.38;5.90;;;14.20;76.10;;;;;;4986833;28;20201;-77
2022/03/12 11:19:07;;;;;;;8.07;5.43;;;14.30;75.30;;;;;;4968738;28;20204;-77
2022/03/12 11:21:37;;;;;;;9.77;6.65;;;14.50;74.40;;;;;;4973057;28;20231;-77
2022/03/12 11:24:06;;;;;;;8.95;5.95;;;14.50;73.00;;;;;;4994796;28;20205;-77
2022/03/12 11:26:49;;;;;;;9.38;6.45;;;14.50;74.90;;;;;;4974478;28;20212;-77
2022/03/12 11:29:18;;;;;;;7.30;6.30;;;14.60;72.70;;;;;;4976917;28;20195;-77
2022/03/12 11:31:48;;;;;;;7.72;6.70;;;14.60;72.20;;;;;;4972059;28;20233;-77
2022/03/12 11:34:22;;;;;;;8.30;7.10;;;14.90;72.80;;;;;;5024646;22;20215;-77
2022/03/12 11:37:12;;;;;;;7.45;6.68;;;15.10;73.40;;;;;;5008912;28;20210;-77
2022/03/12 11:39:44;;;;;;;7.57;6.78;;;14.90;70.80;;;;;;5028877;28;20192;-80
2022/03/12 11:42:15;;;;;;;9.88;6.75;;;15.10;71.40;;;;;;5005245;28;20204;-79
2022/03/12 11:44:50;;;;;;;8.35;6.93;;;15.30;71.80;;;;;;5016281;28;20216;-79
2022/03/12 11:47:19;;;;;;;9.85;7.18;;;15.60;70.40;;;;;;5028265;28;20203;-77
2022/03/12 11:49:48;;;;;;;9.45;6.95;;;15.60;70.40;;;;;;5027152;28;20200;-79
2022/03/12 11:52:46;;;;;;;8.30;6.70;;;15.90;69.70;;;;;;5005396;28;20646;-75
2022/03/12 11:55:20;;;;;;;9.55;7.35;;;15.60;68.10;;;;;;5009132;28;20207;-77
2022/03/12 11:57:51;;;;;;;10.55;7.28;;;15.30;67.90;;;;;;5011995;28;20213;-78
2022/03/12 12:00:24;;;;;;;7.35;6.60;;;15.60;68.30;;;;;;5004299;28;20196;-77
2022/03/12 12:02:52;;;;;;;8.48;6.50;;;15.60;68.00;;;;;;5003373;28;20192;-77
2022/03/12 12:05:22;;;;;;;8.18;7.10;;;15.70;67.40;;;;;;5009521;28;20204;-76
2022/03/12 12:07:51;;;;;;;8.25;7.10;;;16.00;66.50;;;;;;5028722;28;20571;-76
2022/03/12 12:10:27;;;;;;;9.45;7.78;;;15.30;66.40;;;;;;5028935;28;20704;-76
2022/03/12 12:12:58;;;;;;;10.25;8.20;;;15.20;67.90;;;;;;5003972;28;20180;-76
2022/03/12 12:15:31;;;;;;;9.20;7.30;;;15.10;69.20;;;;;;5008777;28;20207;-76
2022/03/12 12:17:58;;;;;;;8.57;7.43;;;14.90;68.20;;;;;;5030047;28;20231;-76
2022/03/12 12:20:28;;;;;;;8.30;7.22;;;14.90;68.60;;;;;;5005186;28;20197;-76
2022/03/12 12:22:56;;;;;;;8.23;7.45;;;14.80;68.20;;;;;;4994350;28;20647;-76
2022/03/12 12:25:25;;;;;;;9.00;8.10;;;15.00;67.90;;;;;;4995661;28;20654;-76
2022/03/12 12:27:56;;;;;;;8.20;7.40;;;15.10;68.50;;;;;;4995941;28;20200;-76
2022/03/12 12:30:38;;;;;;;10.15;8.02;;;15.10;68.90;;;;;;5007508;28;20698;-76
2022/03/12 12:33:18;;;;;;;9.60;7.18;;;15.20;68.40;;;;;;5019410;28;20239;-76
2022/03/12 12:35:47;;;;;;;8.65;7.53;;;15.10;68.50;;;;;;5031596;28;20195;-76
2022/03/12 12:38:17;;;;;;;8.02;7.22;;;15.20;67.90;;;;;;5049389;28;20203;-76
2022/03/12 12:40:47;;;;;;;8.30;7.28;;;15.10;68.20;;;;;;5034421;28;20179;-76
2022/03/12 12:43:19;;;;;;;10.57;8.05;;;15.10;68.20;;;;;;5060038;28;20228;-76
2022/03/12 12:46:12;;;;;;;8.85;7.45;;;15.20;68.20;;;;;;5061233;28;20199;-76
2022/03/12 12:48:43;;;;;;;8.88;7.55;;;15.20;68.90;;;;;;5032869;28;20237;-77
2022/03/12 12:51:15;;;;;;;11.43;8.15;;;15.30;68.40;;;;;;5029854;28;20211;-76
2022/03/12 12:53:45;;;;;;;9.32;7.50;;;15.10;68.50;;;;;;5024124;28;20202;-76
2022/03/12 12:56:21;;;;;;;10.27;8.40;;;15.10;67.70;;;;;;5034227;28;20191;-76
2022/03/12 12:59:14;;;;;;;9.98;7.30;;;15.00;68.40;;;;;;5022459;28;20200;-76
2022/03/12 13:01:52;;;;;;;10.20;7.82;;;15.00;68.90;;;;;;5013460;28;20196;-76
2022/03/12 13:04:46;;;;;;;9.35;7.10;;;14.90;68.10;;;;;;5013280;28;20585;-76